Time;durP1;ratioP1;P1;durP2;ratioP2;P2;SDS_P1;SDS_P2;PMS_P1;PMS_P2;Temp;Humidity;BMP_temperature;BMP_pressure;BME280_temperature;BME280_humidity;BME280_pressure;Samples;Min_cycle;Max_cycle;Signal;HPM_P1;HPM_P2
2023/05/02 00:02:17;;;;;;;9.20;8.07;;;16.20;81.20;;;;;;6029901;23;20412;-73
2023/05/02 00:04:46;;;;;;;6.57;5.83;;;16.20;81.20;;;;;;6028858;23;20548;-73
2023/05/02 00:07:14;;;;;;;7.97;6.60;;;16.20;81.40;;;;;;6055279;23;20435;-73
2023/05/02 00:09:43;;;;;;;8.83;7.93;;;16.20;81.20;;;;;;6029273;23;20441;-73
2023/05/02 00:12:11;;;;;;;8.43;7.57;;;16.20;81.20;;;;;;6029887;23;20491;-73
2023/05/02 00:14:39;;;;;;;6.73;5.93;;;16.20;81.40;;;;;;6029487;23;21039;-72
2023/05/02 00:17:07;;;;;;;8.57;7.67;;;16.20;81.40;;;;;;6029360;23;20494;-73
2023/05/02 00:19:39;;;;;;;6.27;5.67;;;16.20;81.40;;;;;;6053454;23;20440;-73
2023/05/02 00:22:08;;;;;;;5.70;4.80;;;16.20;81.40;;;;;;6029928;23;21295;-73
2023/05/02 00:24:36;;;;;;;8.80;7.90;;;16.20;81.50;;;;;;6028412;23;20528;-73
2023/05/02 00:27:05;;;;;;;8.17;7.20;;;16.20;81.20;;;;;;6030907;23;20397;-72
2023/05/02 00:29:34;;;;;;;7.90;6.87;;;16.20;81.20;;;;;;6030208;23;20448;-73
2023/05/02 00:32:03;;;;;;;11.20;8.80;;;16.20;81.30;;;;;;6006461;23;20838;-73
2023/05/02 00:34:31;;;;;;;9.33;8.37;;;16.20;81.20;;;;;;6030528;23;20436;-72
2023/05/02 00:37:01;;;;;;;8.07;6.27;;;16.20;81.30;;;;;;6031364;23;20459;-72
2023/05/02 00:39:29;;;;;;;11.60;9.43;;;16.20;81.30;;;;;;6030832;23;20520;-73
2023/05/02 00:41:58;;;;;;;7.80;7.00;;;16.10;81.10;;;;;;6032313;23;20420;-73
2023/05/02 00:44:27;;;;;;;8.07;6.40;;;16.10;81.10;;;;;;6156454;23;20411;-72
2023/05/02 00:46:56;;;;;;;8.67;7.77;;;16.10;81.20;;;;;;6030543;23;20448;-73
2023/05/02 00:49:24;;;;;;;8.80;7.83;;;16.10;81.10;;;;;;6007552;23;20436;-72
2023/05/02 00:51:53;;;;;;;9.80;6.87;;;16.10;81.30;;;;;;6031291;23;20922;-73
2023/05/02 00:54:23;;;;;;;8.53;7.53;;;16.10;81.30;;;;;;6055773;23;20722;-72
2023/05/02 00:56:51;;;;;;;8.40;7.53;;;16.10;81.10;;;;;;6056717;23;20447;-73
2023/05/02 00:59:20;;;;;;;8.63;7.23;;;16.10;81.20;;;;;;6031027;23;20487;-73
2023/05/02 01:01:58;;;;;;;10.63;8.63;;;16.10;81.20;;;;;;6030664;23;20508;-73
2023/05/02 01:04:38;;;;;;;7.40;6.70;;;16.10;81.20;;;;;;6030929;23;20700;-74
2023/05/02 01:07:21;;;;;;;7.03;6.33;;;16.10;81.30;;;;;;6031310;23;20724;-73
2023/05/02 01:10:04;;;;;;;7.47;6.77;;;16.10;81.20;;;;;;6029833;23;20436;-72
2023/05/02 01:12:41;;;;;;;8.50;7.60;;;16.10;81.20;;;;;;6031707;23;20471;-73
2023/05/02 01:15:14;;;;;;;7.50;6.70;;;16.10;81.30;;;;;;6006432;23;20523;-73
2023/05/02 01:17:44;;;;;;;7.53;6.77;;;16.00;81.30;;;;;;6030944;23;20869;-73
2023/05/02 01:20:19;;;;;;;9.57;7.10;;;16.10;81.30;;;;;;6030787;23;20468;-71
2023/05/02 01:22:48;;;;;;;6.20;5.50;;;16.00;81.40;;;;;;6030062;23;20503;-73
2023/05/02 01:25:29;;;;;;;11.00;7.57;;;16.10;81.40;;;;;;6030615;23;20441;-73
2023/05/02 01:28:05;;;;;;;5.23;4.30;;;16.10;81.40;;;;;;6031109;23;20957;-73
2023/05/02 01:30:37;;;;;;;6.77;5.00;;;16.10;81.50;;;;;;6029599;23;20471;-73
2023/05/02 01:33:07;;;;;;;9.97;7.93;;;16.10;81.70;;;;;;6031450;23;20416;-73
2023/05/02 01:35:37;;;;;;;8.17;6.67;;;16.00;81.50;;;;;;6029625;23;20495;-73
2023/05/02 01:38:06;;;;;;;11.57;10.37;;;16.00;81.50;;;;;;6031645;23;20436;-72
2023/05/02 01:40:36;;;;;;;10.37;6.97;;;16.00;81.50;;;;;;6030220;23;20973;-73
2023/05/02 01:43:07;;;;;;;10.80;8.57;;;16.00;81.50;;;;;;6031324;23;20413;-73
2023/05/02 01:45:39;;;;;;;7.40;6.60;;;16.00;81.40;;;;;;6029677;23;20445;-72
2023/05/02 01:48:09;;;;;;;10.87;8.90;;;16.00;81.60;;;;;;6031850;23;20404;-73
2023/05/02 01:50:43;;;;;;;15.83;13.03;;;16.00;81.40;;;;;;6031516;23;20466;-72
2023/05/02 01:53:13;;;;;;;5.60;5.00;;;16.00;81.40;;;;;;6158015;23;20446;-72
2023/05/02 01:55:45;;;;;;;8.70;7.90;;;16.00;81.50;;;;;;6029623;23;20503;-73
2023/05/02 01:58:16;;;;;;;7.43;6.73;;;16.00;81.60;;;;;;6031412;23;20384;-73
2023/05/02 02:00:47;;;;;;;11.67;9.63;;;16.00;81.80;;;;;;6029936;23;20420;-73
2023/05/02 02:03:18;;;;;;;10.20;8.00;;;16.00;81.60;;;;;;6033965;23;20926;-73
2023/05/02 02:05:49;;;;;;;7.97;7.17;;;16.00;81.50;;;;;;6032609;23;20428;-73
2023/05/02 02:08:17;;;;;;;9.97;8.90;;;16.00;81.70;;;;;;6034268;23;20381;-73
2023/05/02 02:10:51;;;;;;;10.57;8.30;;;16.00;81.70;;;;;;6009123;23;20763;-73
2023/05/02 02:13:27;;;;;;;10.27;8.93;;;15.90;81.50;;;;;;6033293;23;20416;-72
2023/05/02 02:16:01;;;;;;;5.13;4.60;;;16.00;81.60;;;;;;6032888;23;20400;-73
2023/05/02 02:18:32;;;;;;;10.93;6.37;;;16.00;81.70;;;;;;6034882;23;20408;-72
2023/05/02 02:21:09;;;;;;;11.20;9.50;;;16.00;81.80;;;;;;6058406;23;20787;-73
2023/05/02 02:23:42;;;;;;;9.93;8.77;;;16.00;81.70;;;;;;6033360;23;20412;-72
2023/05/02 02:26:12;;;;;;;13.43;9.40;;;15.90;81.60;;;;;;6058627;23;20413;-73
2023/05/02 02:28:41;;;;;;;14.50;10.47;;;15.90;81.60;;;;;;6058711;23;20386;-73
2023/05/02 02:31:11;;;;;;;9.37;7.73;;;15.90;81.60;;;;;;6158552;23;20405;-73
2023/05/02 02:33:40;;;;;;;7.40;6.70;;;15.90;81.60;;;;;;6034235;23;20421;-73
2023/05/02 02:36:12;;;;;;;7.53;6.73;;;15.90;81.60;;;;;;6033519;23;20401;-73
2023/05/02 02:38:47;;;;;;;9.43;8.37;;;15.90;81.80;;;;;;6034367;23;20409;-72
2023/05/02 02:41:20;;;;;;;10.03;8.40;;;15.90;81.50;;;;;;6034173;23;20743;-73
2023/05/02 02:43:59;;;;;;;11.70;8.67;;;15.90;81.70;;;;;;6034383;23;20719;-73
2023/05/02 02:46:42;;;;;;;12.77;10.00;;;15.90;81.50;;;;;;6057772;23;20516;-72
2023/05/02 02:49:19;;;;;;;12.77;8.67;;;15.90;81.50;;;;;;6034407;23;20393;-73
2023/05/02 02:51:58;;;;;;;11.10;8.97;;;15.90;81.60;;;;;;6034140;23;20764;-72
2023/05/02 02:54:35;;;;;;;6.63;5.70;;;15.90;81.50;;;;;;6032528;23;20464;-72
2023/05/02 02:57:12;;;;;;;10.20;8.20;;;15.90;81.80;;;;;;6010074;23;20400;-72
2023/05/02 02:59:46;;;;;;;7.80;6.50;;;15.90;81.80;;;;;;6033602;23;20444;-73
2023/05/02 03:02:19;;;;;;;7.20;6.20;;;15.90;81.80;;;;;;6032088;23;20425;-73
2023/05/02 03:04:51;;;;;;;8.73;7.40;;;15.90;81.80;;;;;;6030454;23;20520;-72
2023/05/02 03:07:19;;;;;;;8.47;7.50;;;15.90;81.80;;;;;;6032487;23;20727;-72
2023/05/02 03:09:48;;;;;;;11.40;8.70;;;15.90;81.80;;;;;;6030110;23;20424;-72
2023/05/02 03:12:21;;;;;;;6.20;5.53;;;15.90;81.80;;;;;;6031120;23;20787;-73
2023/05/02 03:14:50;;;;;;;6.50;5.73;;;15.90;81.90;;;;;;6031024;23;20506;-74
2023/05/02 03:17:21;;;;;;;5.03;4.13;;;15.90;81.90;;;;;;6029939;23;20404;-72
2023/05/02 03:19:53;;;;;;;7.30;6.43;;;15.90;81.90;;;;;;6030098;23;20444;-72
2023/05/02 03:22:23;;;;;;;8.50;6.30;;;15.80;81.90;;;;;;6030719;23;20405;-72
2023/05/02 03:24:51;;;;;;;7.37;5.43;;;15.80;81.90;;;;;;6029905;23;20436;-73
2023/05/02 03:27:19;;;;;;;7.20;5.67;;;15.80;81.90;;;;;;6055376;23;20388;-73
2023/05/02 03:29:48;;;;;;;6.67;5.97;;;15.80;81.90;;;;;;6031063;23;20452;-73
2023/05/02 03:32:17;;;;;;;6.60;4.97;;;15.80;82.00;;;;;;6030398;23;20467;-73
2023/05/02 03:34:46;;;;;;;9.40;6.10;;;15.80;82.00;;;;;;6030143;23;20515;-73
2023/05/02 03:37:15;;;;;;;11.10;8.83;;;15.80;81.90;;;;;;6031155;23;20392;-72
2023/05/02 03:39:44;;;;;;;6.90;6.17;;;15.80;81.90;;;;;;6030618;23;20927;-73
2023/05/02 03:42:12;;;;;;;12.80;8.40;;;15.80;81.90;;;;;;6030948;23;20499;-72
2023/05/02 03:44:41;;;;;;;8.57;6.93;;;15.80;81.80;;;;;;6029793;23;20784;-73
2023/05/02 03:47:09;;;;;;;9.73;8.73;;;15.80;81.90;;;;;;6030921;23;20409;-72
2023/05/02 03:49:41;;;;;;;10.47;9.00;;;15.80;81.90;;;;;;6030630;23;20489;-73
2023/05/02 03:52:11;;;;;;;7.63;6.40;;;15.80;82.00;;;;;;6030590;23;20528;-73
2023/05/02 03:54:40;;;;;;;6.30;5.70;;;15.80;82.00;;;;;;6029854;23;20437;-72
2023/05/02 03:57:10;;;;;;;6.70;5.47;;;15.80;82.10;;;;;;6031842;23;20390;-73
2023/05/02 03:59:41;;;;;;;6.97;5.87;;;15.80;82.10;;;;;;6029895;23;20517;-72
2023/05/02 04:02:19;;;;;;;5.87;5.27;;;15.80;82.00;;;;;;6030605;23;20644;-72
2023/05/02 04:04:49;;;;;;;5.20;4.47;;;15.70;82.00;;;;;;6029415;23;20946;-73
2023/05/02 04:07:24;;;;;;;5.30;4.47;;;15.70;82.00;;;;;;6032505;23;20472;-72
2023/05/02 04:10:06;;;;;;;6.80;5.53;;;15.70;81.90;;;;;;6032085;23;20456;-73
2023/05/02 04:12:39;;;;;;;6.07;5.40;;;15.70;82.00;;;;;;6031004;23;20438;-72
2023/05/02 04:15:09;;;;;;;5.70;4.90;;;15.70;82.00;;;;;;6031145;23;20447;-73
2023/05/02 04:17:39;;;;;;;6.80;5.40;;;15.70;82.00;;;;;;6031062;23;20455;-72
2023/05/02 04:20:12;;;;;;;7.73;6.67;;;15.70;82.00;;;;;;6030909;23;20440;-73
2023/05/02 04:22:48;;;;;;;7.90;5.60;;;15.70;82.10;;;;;;6031791;23;20416;-72
2023/05/02 04:25:17;;;;;;;5.70;4.77;;;15.70;82.00;;;;;;6054571;23;20448;-73
2023/05/02 04:27:46;;;;;;;6.40;4.63;;;15.70;82.10;;;;;;6032552;23;20408;-72
2023/05/02 04:30:18;;;;;;;6.00;5.40;;;15.70;82.00;;;;;;6030891;23;20436;-73
2023/05/02 04:32:55;;;;;;;7.63;5.80;;;15.70;82.10;;;;;;6007481;23;20474;-72
2023/05/02 04:35:25;;;;;;;7.47;6.30;;;15.70;82.10;;;;;;6030996;23;20424;-73
2023/05/02 04:37:56;;;;;;;8.70;6.77;;;15.70;82.00;;;;;;6032132;23;20404;-72
2023/05/02 04:40:26;;;;;;;9.50;7.60;;;15.70;82.00;;;;;;6031251;23;20471;-73
2023/05/02 04:43:01;;;;;;;8.00;5.23;;;15.70;81.90;;;;;;6032419;23;20798;-72
2023/05/02 04:45:37;;;;;;;5.70;4.97;;;15.70;82.00;;;;;;6030696;23;20440;-73
2023/05/02 04:48:11;;;;;;;6.30;5.67;;;15.70;82.10;;;;;;6031660;23;20377;-73
2023/05/02 04:50:40;;;;;;;6.83;6.23;;;15.70;83.30;;;;;;6031631;23;20439;-72
2023/05/02 04:53:10;;;;;;;7.20;5.33;;;15.70;82.10;;;;;;6032021;23;20460;-73
2023/05/02 04:55:39;;;;;;;7.10;5.70;;;15.70;82.20;;;;;;6030396;23;20958;-71
2023/05/02 04:58:07;;;;;;;7.00;5.80;;;15.70;82.00;;;;;;6057342;23;20935;-72
2023/05/02 05:00:36;;;;;;;7.57;6.77;;;15.70;82.10;;;;;;6030778;23;20992;-73
2023/05/02 05:03:06;;;;;;;6.00;5.40;;;15.70;82.10;;;;;;6031859;23;20417;-73
2023/05/02 05:05:34;;;;;;;5.87;5.27;;;15.70;82.10;;;;;;6029032;23;20432;-73
2023/05/02 05:08:04;;;;;;;6.67;5.80;;;15.60;82.10;;;;;;6031874;23;20408;-72
2023/05/02 05:10:37;;;;;;;5.23;4.73;;;15.60;82.10;;;;;;6030606;23;20443;-72
2023/05/02 05:13:05;;;;;;;8.73;7.10;;;15.60;82.10;;;;;;6030864;23;20433;-73
2023/05/02 05:15:34;;;;;;;6.13;5.53;;;15.60;82.00;;;;;;6054115;23;20942;-73
2023/05/02 05:18:03;;;;;;;5.73;4.90;;;15.60;83.30;;;;;;6030736;23;20875;-72
2023/05/02 05:20:33;;;;;;;7.97;7.17;;;15.60;82.10;;;;;;6031336;23;20436;-72
2023/05/02 05:23:02;;;;;;;8.80;7.63;;;15.60;82.10;;;;;;6031503;23;20440;-73
2023/05/02 05:25:32;;;;;;;6.73;6.00;;;15.60;82.10;;;;;;6030510;23;20440;-73
2023/05/02 05:28:03;;;;;;;9.03;6.57;;;15.60;82.10;;;;;;6032058;23;20476;-73
2023/05/02 05:30:34;;;;;;;9.13;6.60;;;15.60;82.10;;;;;;6029979;23;20433;-73
2023/05/02 05:33:05;;;;;;;7.30;6.33;;;15.60;82.10;;;;;;6055406;23;20455;-66
2023/05/02 05:35:33;;;;;;;7.50;6.37;;;15.60;82.10;;;;;;6030309;23;20939;-66
2023/05/02 05:38:03;;;;;;;8.13;6.47;;;15.60;82.10;;;;;;6031647;23;20397;-66
2023/05/02 05:40:34;;;;;;;8.90;6.40;;;15.50;82.10;;;;;;6029469;23;20490;-65
2023/05/02 05:43:05;;;;;;;8.23;7.03;;;15.60;82.20;;;;;;6031260;23;20448;-66
2023/05/02 05:45:37;;;;;;;10.13;7.97;;;15.60;82.10;;;;;;6030756;23;20439;-66
2023/05/02 05:48:07;;;;;;;7.00;6.30;;;15.50;82.10;;;;;;6053529;23;20411;-66
2023/05/02 05:50:41;;;;;;;7.00;6.30;;;15.50;82.00;;;;;;6030816;23;20432;-65
2023/05/02 05:53:10;;;;;;;7.03;6.33;;;15.50;82.20;;;;;;6031962;23;20421;-64
2023/05/02 05:55:41;;;;;;;8.07;6.80;;;15.50;82.00;;;;;;6029985;23;20779;-67
2023/05/02 05:58:11;;;;;;;6.60;5.83;;;15.50;82.00;;;;;;6031481;23;20441;-65
2023/05/02 06:00:41;;;;;;;7.73;5.93;;;15.50;82.10;;;;;;6031042;23;20490;-65
2023/05/02 06:03:10;;;;;;;6.37;5.47;;;15.50;82.10;;;;;;6031758;23;20463;-65
2023/05/02 06:05:39;;;;;;;6.23;5.63;;;15.50;82.00;;;;;;6030241;23;20433;-66
2023/05/02 06:08:08;;;;;;;8.07;6.17;;;15.50;82.10;;;;;;6031927;23;20459;-66
2023/05/02 06:10:36;;;;;;;7.23;6.47;;;15.50;82.10;;;;;;6029992;23;20441;-66
2023/05/02 06:13:05;;;;;;;6.40;5.53;;;15.50;82.10;;;;;;6031109;23;20494;-65
2023/05/02 06:15:38;;;;;;;6.37;5.70;;;15.50;82.10;;;;;;6030274;23;20523;-66
2023/05/02 06:18:07;;;;;;;7.63;6.37;;;15.50;82.10;;;;;;6031668;23;20385;-74
2023/05/02 06:20:36;;;;;;;7.30;5.70;;;15.50;82.00;;;;;;6056752;23;20835;-72
2023/05/02 06:23:04;;;;;;;7.60;6.40;;;15.50;82.00;;;;;;6031457;23;20425;-74
2023/05/02 06:25:33;;;;;;;5.63;5.03;;;15.50;82.10;;;;;;6029963;23;20444;-73
2023/05/02 06:28:01;;;;;;;7.03;5.10;;;15.50;82.10;;;;;;6031373;23;20396;-72
2023/05/02 06:30:30;;;;;;;7.73;6.60;;;15.50;82.10;;;;;;6056058;23;20451;-72
2023/05/02 06:33:00;;;;;;;7.97;6.70;;;15.50;82.00;;;;;;6030401;23;20432;-72
2023/05/02 06:35:28;;;;;;;5.83;5.20;;;15.50;82.10;;;;;;6030777;23;20453;-73
2023/05/02 06:37:56;;;;;;;5.80;4.70;;;15.50;82.10;;;;;;6054770;23;20883;-72
2023/05/02 06:40:25;;;;;;;6.00;5.40;;;15.40;82.10;;;;;;6055968;23;20495;-72
2023/05/02 06:42:53;;;;;;;6.17;5.43;;;15.50;82.20;;;;;;6030977;23;20491;-73
2023/05/02 06:45:22;;;;;;;5.90;5.40;;;15.40;82.10;;;;;;6029394;23;20441;-73
2023/05/02 06:47:50;;;;;;;5.40;4.73;;;15.40;82.10;;;;;;6030540;23;20805;-73
2023/05/02 06:50:20;;;;;;;5.97;5.37;;;15.40;82.10;;;;;;6029089;23;20522;-72
2023/05/02 06:52:48;;;;;;;6.60;5.77;;;15.40;82.10;;;;;;6031383;23;20413;-73
2023/05/02 06:55:17;;;;;;;6.30;5.20;;;15.40;82.10;;;;;;6028851;23;20527;-73
2023/05/02 06:57:45;;;;;;;5.37;4.87;;;15.40;82.10;;;;;;6054244;23;20393;-73
2023/05/02 07:00:16;;;;;;;6.97;5.30;;;15.40;82.10;;;;;;6052558;23;20833;-72
2023/05/02 07:02:45;;;;;;;5.70;5.10;;;15.40;82.10;;;;;;6030917;23;20791;-73
2023/05/02 07:05:14;;;;;;;6.13;5.53;;;15.40;82.10;;;;;;6030569;23;20814;-73
2023/05/02 07:07:44;;;;;;;5.30;4.80;;;15.40;82.10;;;;;;6057531;23;20400;-73
2023/05/02 07:10:13;;;;;;;5.40;4.90;;;15.40;82.10;;;;;;6031649;23;20519;-72
2023/05/02 07:12:41;;;;;;;5.70;5.20;;;15.40;82.20;;;;;;6031411;23;20519;-72
2023/05/02 07:15:12;;;;;;;5.90;5.00;;;15.40;82.20;;;;;;6030824;23;20453;-73
2023/05/02 07:17:41;;;;;;;5.23;4.83;;;15.40;82.10;;;;;;6030548;23;20467;-73
2023/05/02 07:20:12;;;;;;;5.90;5.40;;;15.40;82.20;;;;;;6030980;23;20531;-71
2023/05/02 07:22:40;;;;;;;6.00;5.10;;;15.40;82.10;;;;;;6031236;23;20413;-73
2023/05/02 07:25:10;;;;;;;5.10;4.60;;;15.40;82.20;;;;;;6030138;23;20433;-72
2023/05/02 07:27:39;;;;;;;5.40;4.90;;;15.40;82.20;;;;;;6031775;23;20385;-73
2023/05/02 07:30:08;;;;;;;4.70;4.20;;;15.40;82.20;;;;;;6031033;23;20929;-73
2023/05/02 07:32:36;;;;;;;5.27;4.77;;;15.40;82.20;;;;;;6030547;23;20456;-73
2023/05/02 07:35:06;;;;;;;4.63;4.23;;;15.30;82.20;;;;;;6054575;23;20851;-73
2023/05/02 07:37:35;;;;;;;5.87;5.33;;;15.40;82.30;;;;;;6056696;23;20439;-72
2023/05/02 07:40:04;;;;;;;4.60;4.20;;;15.30;82.10;;;;;;6029945;23;20448;-73
2023/05/02 07:42:35;;;;;;;4.77;4.27;;;15.30;82.20;;;;;;6056041;23;20416;-72
2023/05/02 07:45:03;;;;;;;7.80;4.73;;;15.30;82.20;;;;;;6030953;23;20848;-65
2023/05/02 07:47:31;;;;;;;5.80;5.00;;;15.30;82.10;;;;;;6029611;23;20895;-64
2023/05/02 07:50:00;;;;;;;5.57;4.87;;;15.30;82.10;;;;;;6030402;23;20447;-66
2023/05/02 07:52:29;;;;;;;4.57;4.17;;;15.30;82.20;;;;;;6030013;23;20554;-66
2023/05/02 07:54:57;;;;;;;5.40;4.80;;;15.30;82.20;;;;;;6053228;23;20453;-66
2023/05/02 07:57:26;;;;;;;4.30;3.90;;;15.30;82.10;;;;;;6030878;23;20396;-66
2023/05/02 07:59:57;;;;;;;5.37;4.10;;;15.30;82.20;;;;;;6030435;23;20468;-64
2023/05/02 08:02:26;;;;;;;4.90;4.00;;;15.30;82.20;;;;;;6029774;23;20409;-66
2023/05/02 08:04:55;;;;;;;4.93;4.13;;;15.30;82.10;;;;;;6054387;23;20436;-65
2023/05/02 08:07:23;;;;;;;4.77;4.30;;;15.30;82.10;;;;;;6030743;23;20443;-65
2023/05/02 08:09:51;;;;;;;4.83;4.33;;;15.30;82.10;;;;;;6030447;23;20445;-66
2023/05/02 08:12:20;;;;;;;4.03;3.63;;;15.30;82.10;;;;;;6029745;23;20420;-64
2023/05/02 08:14:49;;;;;;;5.97;3.00;;;15.30;81.80;;;;;;6026955;23;20480;-66
2023/05/02 08:17:18;;;;;;;7.03;3.27;;;15.10;79.50;;;;;;6053429;23;20393;-65
2023/05/02 08:19:47;;;;;;;12.87;3.27;;;15.00;79.60;;;;;;6029848;23;20433;-66
2023/05/02 08:22:16;;;;;;;6.37;2.60;;;14.80;79.90;;;;;;6029825;23;20508;-64
2023/05/02 08:24:44;;;;;;;5.78;3.30;;;14.70;80.20;;;;;;6027168;23;20468;-65
2023/05/02 08:27:17;;;;;;;7.43;3.90;;;14.70;81.10;;;;;;6030829;23;20153;-66
2023/05/02 08:29:46;;;;;;;5.70;3.07;;;14.70;81.40;;;;;;6030138;23;20442;-64
2023/05/02 08:32:14;;;;;;;7.97;2.80;;;14.80;81.30;;;;;;6029703;23;20428;-65
2023/05/02 08:34:44;;;;;;;6.73;2.17;;;14.90;81.10;;;;;;6052952;23;20448;-64
2023/05/02 08:37:14;;;;;;;7.63;3.67;;;14.90;80.80;;;;;;6055668;23;20763;-65
2023/05/02 08:39:42;;;;;;;6.90;2.47;;;15.00;80.70;;;;;;6053373;23;20436;-64
2023/05/02 08:42:11;;;;;;;4.60;2.67;;;15.00;80.50;;;;;;6029011;23;20416;-65
2023/05/02 08:44:40;;;;;;;4.37;2.27;;;15.10;80.60;;;;;;6051135;23;20490;-63
2023/05/02 08:47:13;;;;;;;5.53;3.00;;;15.10;80.50;;;;;;6055034;23;20451;-66
2023/05/02 08:49:45;;;;;;;4.17;2.73;;;15.10;80.40;;;;;;6029437;23;20444;-65
2023/05/02 08:52:18;;;;;;;3.30;2.10;;;15.10;80.40;;;;;;6031114;23;20499;-64
2023/05/02 08:54:46;;;;;;;3.20;2.10;;;15.10;80.20;;;;;;6053270;23;20464;-66
2023/05/02 08:57:15;;;;;;;5.93;2.63;;;15.10;80.10;;;;;;6031608;23;20416;-65
2023/05/02 08:59:43;;;;;;;4.07;2.30;;;15.10;79.90;;;;;;6029988;23;20441;-65
2023/05/02 09:02:22;;;;;;;3.20;2.33;;;15.20;80.10;;;;;;6032157;23;20420;-65
2023/05/02 09:04:55;;;;;;;4.30;2.00;;;15.20;80.00;;;;;;6029458;23;20803;-66
2023/05/02 09:07:23;;;;;;;3.00;2.10;;;15.20;80.10;;;;;;6032347;23;20712;-65
2023/05/02 09:09:51;;;;;;;4.00;1.87;;;15.20;80.00;;;;;;6006854;23;20533;-64
2023/05/02 09:12:26;;;;;;;5.23;2.43;;;15.20;80.00;;;;;;6031270;23;20492;-73
2023/05/02 09:15:10;;;;;;;3.03;2.60;;;15.20;80.00;;;;;;6055026;23;20475;-72
2023/05/02 09:17:43;;;;;;;3.50;2.90;;;15.20;79.80;;;;;;6031008;23;20385;-73
2023/05/02 09:20:14;;;;;;;7.03;2.20;;;15.20;79.80;;;;;;6031011;23;20441;-73
2023/05/02 09:22:49;;;;;;;3.70;2.20;;;15.20;79.90;;;;;;6032281;23;20415;-72
2023/05/02 09:25:18;;;;;;;2.87;2.27;;;15.20;79.90;;;;;;6030479;23;20576;-72
2023/05/02 09:27:51;;;;;;;2.27;1.87;;;15.20;79.70;;;;;;6032431;23;20393;-64
2023/05/02 09:30:22;;;;;;;2.90;2.17;;;15.20;79.80;;;;;;6031075;23;20923;-66
2023/05/02 09:32:51;;;;;;;6.67;2.30;;;15.20;79.80;;;;;;6030911;23;20433;-65
2023/05/02 09:35:23;;;;;;;2.47;1.87;;;15.20;79.80;;;;;;6029505;23;20571;-64
2023/05/02 09:37:53;;;;;;;2.40;1.90;;;15.20;79.70;;;;;;6032145;23;20847;-64
2023/05/02 09:40:22;;;;;;;3.00;1.70;;;15.20;79.60;;;;;;6030623;23;20703;-65
2023/05/02 09:42:50;;;;;;;3.57;2.23;;;15.20;79.50;;;;;;6031857;23;20753;-65
2023/05/02 09:45:23;;;;;;;3.13;2.17;;;15.20;79.80;;;;;;6055711;23;20536;-66
2023/05/02 09:47:52;;;;;;;5.63;2.37;;;15.20;79.80;;;;;;6055021;23;20416;-73
2023/05/02 09:50:36;;;;;;;4.03;1.73;;;15.20;79.70;;;;;;6055261;23;20441;-73
2023/05/02 09:53:06;;;;;;;3.60;1.90;;;15.20;79.70;;;;;;6032259;23;20432;-72
2023/05/02 09:55:34;;;;;;;2.80;2.30;;;15.20;79.70;;;;;;6029969;23;20637;-72
2023/05/02 09:58:04;;;;;;;3.20;2.10;;;15.20;79.50;;;;;;6032109;23;20420;-72
2023/05/02 10:00:40;;;;;;;4.00;2.10;;;15.20;79.40;;;;;;6053905;23;20472;-74
2023/05/02 10:03:09;;;;;;;4.83;2.70;;;15.20;79.10;;;;;;6055795;23;20439;-72
2023/05/02 10:05:39;;;;;;;4.20;2.33;;;15.10;79.30;;;;;;6029624;23;20436;-72
2023/05/02 10:08:10;;;;;;;4.10;2.70;;;15.10;79.70;;;;;;6031806;23;20439;-73
2023/05/02 10:10:40;;;;;;;3.93;2.07;;;15.20;79.50;;;;;;6027369;23;20448;-72
2023/05/02 10:13:09;;;;;;;5.27;2.80;;;15.10;79.40;;;;;;6030794;23;20741;-66
2023/05/02 10:15:43;;;;;;;2.03;1.70;;;15.20;79.60;;;;;;6029840;23;20535;-65
2023/05/02 10:18:14;;;;;;;3.37;2.10;;;15.20;79.60;;;;;;6030889;23;20709;-65
2023/05/02 10:20:56;;;;;;;3.70;1.93;;;15.20;79.50;;;;;;6055092;23;20447;-66
2023/05/02 10:23:27;;;;;;;3.97;2.37;;;15.20;79.60;;;;;;6054315;23;20869;-65
2023/05/02 10:25:58;;;;;;;4.13;2.03;;;15.20;79.50;;;;;;6030309;23;20417;-65
2023/05/02 10:28:28;;;;;;;6.27;2.27;;;15.20;79.50;;;;;;6054736;23;20862;-65
2023/05/02 10:30:58;;;;;;;5.07;2.50;;;15.20;79.50;;;;;;6006270;23;20508;-66
2023/05/02 10:33:28;;;;;;;3.67;2.10;;;15.20;79.60;;;;;;6031084;23;20417;-65
2023/05/02 10:35:59;;;;;;;4.17;2.03;;;15.20;79.60;;;;;;6030615;23;20451;-66
2023/05/02 10:38:27;;;;;;;5.03;2.07;;;15.20;79.70;;;;;;6030430;23;20393;-63
2023/05/02 10:41:00;;;;;;;3.50;2.40;;;15.20;79.70;;;;;;6028309;23;20479;-65
2023/05/02 10:43:32;;;;;;;4.00;2.03;;;15.20;79.70;;;;;;6027683;23;20447;-64
2023/05/02 10:46:02;;;;;;;3.67;2.10;;;15.20;79.70;;;;;;6052026;23;20731;-65
2023/05/02 10:48:30;;;;;;;4.17;2.53;;;15.10;79.50;;;;;;6030236;23;20393;-65
2023/05/02 10:51:01;;;;;;;2.33;1.80;;;15.10;79.70;;;;;;6031376;23;20428;-72
2023/05/02 10:53:35;;;;;;;2.73;1.80;;;15.10;79.60;;;;;;6032465;23;20409;-72
2023/05/02 10:56:16;;;;;;;2.80;1.87;;;15.10;79.60;;;;;;6053666;23;20429;-72
2023/05/02 10:58:45;;;;;;;3.07;1.90;;;15.10;79.60;;;;;;6031570;23;20381;-65
2023/05/02 11:01:35;;;;;;;4.83;2.20;;;15.10;79.50;;;;;;6055265;23;20409;-67
2023/05/02 11:04:11;;;;;;;3.00;2.00;;;15.10;79.40;;;;;;6031027;23;20453;-66
2023/05/02 11:07:20;;;;;;;3.23;1.83;;;15.10;79.50;;;;;;6059249;23;20654;-72
2023/05/02 11:09:49;;;;;;;4.83;2.30;;;15.10;79.60;;;;;;6146763;23;20456;-65
2023/05/02 11:12:49;;;;;;;3.03;2.10;;;15.10;79.70;;;;;;6075089;23;20425;-66
2023/05/02 11:15:56;;;;;;;2.73;1.87;;;15.10;79.80;;;;;;6053355;23;20432;-65
2023/05/02 11:18:25;;;;;;;6.77;2.37;;;15.10;79.90;;;;;;6056692;23;20373;-65
2023/05/02 11:21:27;;;;;;;2.83;1.90;;;15.10;79.80;;;;;;6029856;23;20440;-64
2023/05/02 11:24:35;;;;;;;3.20;2.17;;;15.10;79.70;;;;;;6031519;23;20852;-66
2023/05/02 11:27:38;;;;;;;3.63;1.80;;;15.10;79.60;;;;;;6036757;23;20397;-66
2023/05/02 11:30:08;;;;;;;3.60;1.70;;;15.10;79.60;;;;;;6044796;23;20926;-64
2023/05/02 11:33:14;;;;;;;3.70;1.97;;;15.10;79.60;;;;;;6030311;23;20424;-66
2023/05/02 11:35:45;;;;;;;3.77;1.80;;;15.10;79.50;;;;;;6054010;23;20436;-64
2023/05/02 11:38:16;;;;;;;3.13;2.07;;;15.10;80.70;;;;;;6054392;23;20457;-66
2023/05/02 11:40:55;;;;;;;3.87;1.90;;;15.10;79.50;;;;;;6030298;23;20978;-65
2023/05/02 11:43:27;;;;;;;3.03;2.00;;;15.10;79.60;;;;;;6056153;23;20409;-65
2023/05/02 11:46:00;;;;;;;3.43;2.00;;;15.10;79.60;;;;;;6028905;23;20434;-66
2023/05/02 11:48:31;;;;;;;3.67;2.13;;;15.10;79.40;;;;;;6054380;23;20377;-66
2023/05/02 11:51:03;;;;;;;2.60;2.00;;;15.10;79.40;;;;;;6030303;23;20798;-66
2023/05/02 11:53:33;;;;;;;3.03;1.80;;;15.10;79.50;;;;;;6030930;23;20444;-64
2023/05/02 11:56:04;;;;;;;3.70;2.20;;;15.20;79.60;;;;;;6029786;23;20424;-65
2023/05/02 11:58:34;;;;;;;3.97;2.13;;;15.20;79.20;;;;;;6030646;23;20365;-64
2023/05/02 12:01:13;;;;;;;2.57;1.80;;;15.20;79.40;;;;;;6052595;23;20823;-65
2023/05/02 12:03:41;;;;;;;3.90;2.17;;;15.20;79.40;;;;;;6030560;23;20421;-73
2023/05/02 12:06:12;;;;;;;3.17;1.53;;;15.20;79.40;;;;;;6055132;23;20463;-73
2023/05/02 12:08:43;;;;;;;3.80;1.90;;;15.20;79.40;;;;;;6030081;23;20428;-73
2023/05/02 12:11:14;;;;;;;4.40;2.53;;;15.20;80.20;;;;;;6006832;23;20885;-73
2023/05/02 12:13:48;;;;;;;3.60;1.80;;;15.20;79.30;;;;;;6027067;23;20409;-73
2023/05/02 12:16:18;;;;;;;3.93;2.40;;;15.20;79.40;;;;;;6030221;23;20396;-72
2023/05/02 12:18:48;;;;;;;2.60;1.67;;;15.20;78.70;;;;;;6030699;23;20413;-72
2023/05/02 12:21:17;;;;;;;2.70;1.57;;;15.20;79.30;;;;;;6054687;23;20802;-72
2023/05/02 12:23:46;;;;;;;3.43;2.10;;;15.20;79.40;;;;;;6029622;23;20519;-73
2023/05/02 12:26:19;;;;;;;3.27;2.10;;;15.20;79.40;;;;;;6030038;23;20397;-72
2023/05/02 12:28:53;;;;;;;3.30;1.87;;;15.20;79.30;;;;;;6031514;23;20381;-72
2023/05/02 12:31:23;;;;;;;3.30;1.80;;;15.20;79.40;;;;;;6032197;23;20372;-73
2023/05/02 12:33:56;;;;;;;3.30;1.90;;;15.20;79.40;;;;;;6030735;23;20475;-73
2023/05/02 12:36:24;;;;;;;4.03;1.97;;;15.20;79.40;;;;;;6031611;23;20906;-73
2023/05/02 12:38:56;;;;;;;5.40;2.30;;;15.20;79.10;;;;;;6031525;23;20520;-72
2023/05/02 12:41:32;;;;;;;2.30;1.77;;;15.20;79.20;;;;;;6054803;23;20401;-73
2023/05/02 12:44:02;;;;;;;3.43;1.90;;;15.20;79.30;;;;;;6030852;23;20428;-73
2023/05/02 12:46:32;;;;;;;2.80;2.20;;;15.20;79.30;;;;;;6031608;23;20400;-73
2023/05/02 12:49:06;;;;;;;4.83;1.90;;;15.20;79.10;;;;;;6056332;23;20703;-72
2023/05/02 12:51:36;;;;;;;3.37;2.30;;;15.20;79.00;;;;;;6032864;23;20416;-72
2023/05/02 12:54:05;;;;;;;2.40;1.90;;;15.20;79.10;;;;;;6056201;23;20424;-73
2023/05/02 12:56:39;;;;;;;4.23;2.40;;;15.20;79.20;;;;;;6031690;23;20417;-72
2023/05/02 12:59:10;;;;;;;3.90;1.90;;;15.20;79.30;;;;;;6031929;23;20381;-73
2023/05/02 13:01:38;;;;;;;3.60;1.80;;;15.20;79.30;;;;;;6032179;23;20440;-72
2023/05/02 13:04:07;;;;;;;3.53;1.97;;;15.20;79.30;;;;;;6032082;23;20450;-67
2023/05/02 13:06:36;;;;;;;2.03;1.70;;;15.20;79.20;;;;;;6031790;23;20430;-65
2023/05/02 13:09:05;;;;;;;2.40;1.90;;;15.20;78.90;;;;;;6157302;23;20416;-65